Photo de Laille
https://tgftp.nws.noaa.gov/data/observations/metar/stations/LFRN.TXT2019/04/22 18:30 LFRN 221830Z AUTO 10004KT 340V150 9999 NSC 18/09 Q0999 TEMPO VRB15G25KT SHRA BKN060TCU
Rennes
partiellement nuageux
Metar : 2019/04/22 18:30 LFRN 221830Z AUTO 10004KT 340V150 9999 NSC 18/09 Q0999 TEMPO VRB15G25KT SHRA BKN060TCU
Couverture nuageuse :
Pression de 29.5 inHg (999 hPa)
Humidité : 56%
Température : 64°F (18°C)
Vent de E at 5 mph (7 km/h)
Visibilité : 6 miles (10 km)
Nantes
Orageux
Metar : 2019/04/22 18:30 LFRS 221830Z AUTO 10006KT 070V130 9999 ///TCU 18/09 Q0998 BECMG NSC
Couverture nuageuse :
Traduc : Partly cloudy 700 ft
Pression de 29.47 inHg (998 hPa)
Humidité : 56%
Température : 64°F (18°C)
Point de rosée : 48°F (9°C)
Vent de E at 7 mph (11 km/h)
Visibilité : 6 miles (10 km)
Lannion
partiellement nuageux
Metar : 2019/04/22 18:30 LFRO 221830Z AUTO 09006KT 060V120 9999 NSC 17/10 Q0998
Couverture nuageuse :
Traduc : Partly cloudy 700 ft
Pression de 29.47 inHg (998 hPa)
Humidité : 64%
Température : 63°F (17°C)
Point de rosée : 50°F (10°C)
Vent de E at 7 mph (11 km/h)
Visibilité : 6 miles (10 km)
Dinard
partiellement nuageux
Metar : 2019/04/22 18:30 LFRD 221830Z AUTO 15006KT 9999 NSC 18/09 Q1000 TEMPO VRB15G25KT SHRA BKN060TCU
Couverture nuageuse :
Traduc : Partly cloudy 700 ft
Pression de 29.53 inHg (1000 hPa)
Humidité : 56%
Température : 64°F (18°C)
Point de rosée : 48°F (9°C)
Vent de SSE at 7 mph (11 km/h)
Visibilité : 6 miles (10 km)
Brest
Ciel dégagé
Metar : 2019/04/22 18:30 LFRB 221830Z AUTO 06004KT 020V100 CAVOK 16/09 Q0997 TEMPO SHRA FEW050CB SCT090 BECMG 16010KT
Couverture nuageuse :
Traduc : Partly cloudy 700 ft
Pression de 29.44 inHg (997 hPa)
Humidité : 63%
Température : 61°F (16°C)
Point de rosée : 48°F (9°C)
Vent de ENE at 5 mph (7 km/h)
Visibilité : greater than 7 miles (10 km)
Quimper
partiellement nuageux
Metar : 2019/04/22 18:30 LFRQ 221830Z AUTO 15007KT 120V180 9999 NSC 16/09 Q0997 TEMPO SHRA FEW050CB SCT090
Couverture nuageuse :
Traduc : Partly cloudy 700 ft
Pression de 29.44 inHg (997 hPa)
Humidité : 63%
Température : 61°F (16°C)
Point de rosée : 48°F (9°C)
Vent de SSE at 8 mph (13 km/h)
Visibilité : 6 miles (10 km)
St Nazaire
partiellement nuageux
Metar : 2019/04/22 18:30 LFRZ 221830Z AUTO 08008KT 9999 NSC 16/09 Q0998 NOSIG
Couverture nuageuse :
Traduc : Partly cloudy 700 ft
Pression de 29.47 inHg (998 hPa)
Humidité : 63%
Température : 61°F (16°C)
Point de rosée : 48°F (9°C)
Vent de E at 9 mph (15 km/h)
Visibilité : 6 miles (10 km)
St Brieuc
partiellement nuageux
Metar : 2019/04/22 18:30 LFRT 221830Z AUTO 12004KT 090V150 9999 NSC 17/10 Q0999
Couverture nuageuse :
Traduc : Partly cloudy 700 ft
Pression de 29.5 inHg (999 hPa)
Humidité : 64%
Température : 63°F (17°C)
Point de rosée : 50°F (10°C)
Vent de ESE at 5 mph (7 km/h)
Visibilité : 6 miles (10 km)
Lorient
partiellement nuageux
Metar : 2019/04/22 18:30 LFRH 221830Z AUTO 13009KT 9999 NSC 18/10 Q0998 TEMPO SHRA BKN040CB
Couverture nuageuse :
Traduc : Partly cloudy 700 ft
Pression de 29.47 inHg (998 hPa)
Humidité : 60%
Température : 64°F (18°C)
Point de rosée : 50°F (10°C)
Vent de SE at 10 mph (17 km/h)
Visibilité : 6 miles (10 km)
Vannes-Meucon
partiellement nuageux
Metar : 2019/04/22 18:30 LFRV 221830Z AUTO 10008KT 9999 NSC 17/06 Q0998
Couverture nuageuse :
Traduc : Partly cloudy 700 ft
Pression de 29.47 inHg (998 hPa)
Humidité : 49%
Température : 63°F (17°C)
Point de rosée : 43°F (6°C)
Vent de E at 9 mph (15 km/h)
Visibilité : 6 miles (10 km)

 


   Weather Underground PWS IBRETAGN39      Weather Underground PWS IBRETAGN39Retour Météo-Laillé adhérent de Météo-Bretagne et d'Infoclimat. Données mises à jour en temps réel via Météolink Climatologie réalisée sous Wswin et GraphWeather.

Affichage prévisions météo de WeatherUnderground via script PHP de Saratoga.

Copyright 2012-2018